sensor_id;sensor_type;location;lat;lon;timestamp;P1;durP1;ratioP1;P2;durP2;ratioP2
65853;SDS011;52627;48.838;2.402;2022-07-29T00:00:11;7.70;;;2.20;;
65853;SDS011;52627;48.838;2.402;2022-07-29T00:02:38;4.50;;;2.10;;
65853;SDS011;52627;48.838;2.402;2022-07-29T00:05:05;6.70;;;2.40;;
65853;SDS011;52627;48.838;2.402;2022-07-29T00:07:34;6.50;;;2.60;;
65853;SDS011;52627;48.838;2.402;2022-07-29T00:10:01;5.50;;;2.40;;
65853;SDS011;52627;48.838;2.402;2022-07-29T00:12:28;6.70;;;2.60;;
65853;SDS011;52627;48.838;2.402;2022-07-29T00:14:57;7.90;;;3.30;;
65853;SDS011;52627;48.838;2.402;2022-07-29T00:17:24;6.70;;;2.80;;
65853;SDS011;52627;48.838;2.402;2022-07-29T00:19:51;8.00;;;3.10;;
65853;SDS011;52627;48.838;2.402;2022-07-29T00:22:19;4.30;;;2.60;;
65853;SDS011;52627;48.838;2.402;2022-07-29T00:24:48;5.70;;;2.60;;
65853;SDS011;52627;48.838;2.402;2022-07-29T00:27:15;6.30;;;2.60;;
65853;SDS011;52627;48.838;2.402;2022-07-29T00:29:43;6.40;;;3.00;;
65853;SDS011;52627;48.838;2.402;2022-07-29T00:32:10;4.70;;;2.40;;
65853;SDS011;52627;48.838;2.402;2022-07-29T00:34:37;7.40;;;2.70;;
65853;SDS011;52627;48.838;2.402;2022-07-29T00:37:22;7.20;;;2.90;;
65853;SDS011;52627;48.838;2.402;2022-07-29T00:39:49;7.30;;;2.70;;
65853;SDS011;52627;48.838;2.402;2022-07-29T00:42:17;5.30;;;2.90;;
65853;SDS011;52627;48.838;2.402;2022-07-29T00:44:44;7.00;;;2.50;;
65853;SDS011;52627;48.838;2.402;2022-07-29T00:47:11;5.40;;;2.60;;
65853;SDS011;52627;48.838;2.402;2022-07-29T00:49:40;6.30;;;2.40;;
65853;SDS011;52627;48.838;2.402;2022-07-29T00:52:09;7.10;;;3.00;;
65853;SDS011;52627;48.838;2.402;2022-07-29T00:54:39;4.20;;;2.30;;
65853;SDS011;52627;48.838;2.402;2022-07-29T00:57:11;6.60;;;2.40;;
65853;SDS011;52627;48.838;2.402;2022-07-29T00:59:38;4.90;;;2.30;;
65853;SDS011;52627;48.838;2.402;2022-07-29T01:02:05;8.20;;;2.70;;
65853;SDS011;52627;48.838;2.402;2022-07-29T01:04:33;6.20;;;2.70;;
65853;SDS011;52627;48.838;2.402;2022-07-29T01:07:01;6.30;;;2.90;;
65853;SDS011;52627;48.838;2.402;2022-07-29T01:09:30;5.60;;;3.00;;
65853;SDS011;52627;48.838;2.402;2022-07-29T01:12:15;7.00;;;2.70;;
65853;SDS011;52627;48.838;2.402;2022-07-29T01:14:44;8.10;;;3.50;;
65853;SDS011;52627;48.838;2.402;2022-07-29T01:17:49;4.60;;;2.60;;
65853;SDS011;52627;48.838;2.402;2022-07-29T01:23:13;5.90;;;3.00;;
65853;SDS011;52627;48.838;2.402;2022-07-29T01:34:34;6.20;;;2.50;;
65853;SDS011;52627;48.838;2.402;2022-07-29T01:37:26;6.10;;;2.60;;
65853;SDS011;52627;48.838;2.402;2022-07-29T01:39:58;7.10;;;3.10;;
65853;SDS011;52627;48.838;2.402;2022-07-29T01:42:34;8.30;;;2.90;;
65853;SDS011;52627;48.838;2.402;2022-07-29T01:48:03;8.50;;;3.00;;
65853;SDS011;52627;48.838;2.402;2022-07-29T01:51:02;4.90;;;2.50;;
65853;SDS011;52627;48.838;2.402;2022-07-29T01:53:37;7.80;;;2.90;;
65853;SDS011;52627;48.838;2.402;2022-07-29T01:56:10;5.10;;;2.50;;
65853;SDS011;52627;48.838;2.402;2022-07-29T01:58:40;7.30;;;2.70;;
65853;SDS011;52627;48.838;2.402;2022-07-29T02:01:12;6.00;;;2.60;;
65853;SDS011;52627;48.838;2.402;2022-07-29T02:03:43;7.20;;;2.50;;
65853;SDS011;52627;48.838;2.402;2022-07-29T02:06:12;5.50;;;2.40;;
65853;SDS011;52627;48.838;2.402;2022-07-29T02:08:44;7.70;;;3.10;;
65853;SDS011;52627;48.838;2.402;2022-07-29T02:11:11;5.20;;;2.50;;
65853;SDS011;52627;48.838;2.402;2022-07-29T02:13:38;7.60;;;2.50;;
65853;SDS011;52627;48.838;2.402;2022-07-29T02:16:09;5.70;;;2.60;;
65853;SDS011;52627;48.838;2.402;2022-07-29T02:18:37;6.60;;;2.70;;
65853;SDS011;52627;48.838;2.402;2022-07-29T02:21:06;6.60;;;2.50;;
65853;SDS011;52627;48.838;2.402;2022-07-29T02:23:43;6.40;;;2.60;;
65853;SDS011;52627;48.838;2.402;2022-07-29T02:26:19;8.30;;;2.60;;
65853;SDS011;52627;48.838;2.402;2022-07-29T02:28:52;5.50;;;2.30;;
65853;SDS011;52627;48.838;2.402;2022-07-29T02:31:23;6.90;;;3.10;;
65853;SDS011;52627;48.838;2.402;2022-07-29T02:33:53;5.70;;;2.40;;
65853;SDS011;52627;48.838;2.402;2022-07-29T02:36:22;5.30;;;2.30;;
65853;SDS011;52627;48.838;2.402;2022-07-29T02:38:50;5.90;;;2.60;;
65853;SDS011;52627;48.838;2.402;2022-07-29T02:41:27;4.90;;;2.30;;
65853;SDS011;52627;48.838;2.402;2022-07-29T02:44:16;5.50;;;2.70;;
65853;SDS011;52627;48.838;2.402;2022-07-29T02:46:52;7.00;;;2.80;;
65853;SDS011;52627;48.838;2.402;2022-07-29T02:52:41;5.20;;;2.50;;
65853;SDS011;52627;48.838;2.402;2022-07-29T02:58:03;4.60;;;2.40;;
65853;SDS011;52627;48.838;2.402;2022-07-29T03:00:36;6.70;;;2.50;;
65853;SDS011;52627;48.838;2.402;2022-07-29T03:03:08;8.30;;;2.80;;
65853;SDS011;52627;48.838;2.402;2022-07-29T03:05:39;5.90;;;2.60;;
65853;SDS011;52627;48.838;2.402;2022-07-29T03:08:09;5.30;;;2.60;;
65853;SDS011;52627;48.838;2.402;2022-07-29T03:13:07;6.30;;;2.90;;
65853;SDS011;52627;48.838;2.402;2022-07-29T03:15:35;6.90;;;2.70;;
65853;SDS011;52627;48.838;2.402;2022-07-29T03:18:03;5.80;;;2.80;;
65853;SDS011;52627;48.838;2.402;2022-07-29T03:20:30;5.10;;;2.70;;
65853;SDS011;52627;48.838;2.402;2022-07-29T03:22:57;6.70;;;2.80;;
65853;SDS011;52627;48.838;2.402;2022-07-29T03:25:24;6.90;;;3.00;;
65853;SDS011;52627;48.838;2.402;2022-07-29T03:27:51;5.90;;;2.60;;
65853;SDS011;52627;48.838;2.402;2022-07-29T03:30:18;6.00;;;2.70;;
65853;SDS011;52627;48.838;2.402;2022-07-29T03:32:49;5.60;;;2.80;;
65853;SDS011;52627;48.838;2.402;2022-07-29T03:35:19;5.60;;;2.70;;
65853;SDS011;52627;48.838;2.402;2022-07-29T03:37:46;5.30;;;2.40;;
65853;SDS011;52627;48.838;2.402;2022-07-29T03:40:18;5.70;;;2.50;;
65853;SDS011;52627;48.838;2.402;2022-07-29T03:42:52;7.40;;;2.30;;
65853;SDS011;52627;48.838;2.402;2022-07-29T03:45:21;5.20;;;2.00;;
65853;SDS011;52627;48.838;2.402;2022-07-29T03:47:53;4.90;;;2.30;;
65853;SDS011;52627;48.838;2.402;2022-07-29T03:50:28;5.60;;;2.40;;
65853;SDS011;52627;48.838;2.402;2022-07-29T03:52:57;4.70;;;2.20;;
65853;SDS011;52627;48.838;2.402;2022-07-29T03:55:25;4.10;;;2.10;;
65853;SDS011;52627;48.838;2.402;2022-07-29T03:57:53;5.50;;;2.50;;
65853;SDS011;52627;48.838;2.402;2022-07-29T04:00:23;4.70;;;2.20;;
65853;SDS011;52627;48.838;2.402;2022-07-29T04:02:51;4.40;;;1.90;;
65853;SDS011;52627;48.838;2.402;2022-07-29T04:05:18;6.40;;;2.20;;
65853;SDS011;52627;48.838;2.402;2022-07-29T04:07:47;5.00;;;2.40;;
65853;SDS011;52627;48.838;2.402;2022-07-29T04:10:17;5.00;;;2.10;;
65853;SDS011;52627;48.838;2.402;2022-07-29T04:12:58;5.20;;;2.20;;
65853;SDS011;52627;48.838;2.402;2022-07-29T04:15:26;7.70;;;2.60;;
65853;SDS011;52627;48.838;2.402;2022-07-29T04:17:58;6.90;;;3.10;;
65853;SDS011;52627;48.838;2.402;2022-07-29T04:20:25;4.70;;;2.20;;
65853;SDS011;52627;48.838;2.402;2022-07-29T04:22:52;7.40;;;2.40;;
65853;SDS011;52627;48.838;2.402;2022-07-29T04:25:19;6.90;;;2.70;;
65853;SDS011;52627;48.838;2.402;2022-07-29T04:27:46;5.80;;;2.30;;
65853;SDS011;52627;48.838;2.402;2022-07-29T04:30:29;6.80;;;2.70;;
65853;SDS011;52627;48.838;2.402;2022-07-29T04:32:56;5.50;;;2.50;;
65853;SDS011;52627;48.838;2.402;2022-07-29T04:35:23;6.50;;;2.40;;
65853;SDS011;52627;48.838;2.402;2022-07-29T04:37:50;8.60;;;2.60;;
65853;SDS011;52627;48.838;2.402;2022-07-29T04:40:18;6.90;;;2.60;;
65853;SDS011;52627;48.838;2.402;2022-07-29T04:42:45;7.80;;;2.90;;
65853;SDS011;52627;48.838;2.402;2022-07-29T04:45:14;6.00;;;2.80;;
65853;SDS011;52627;48.838;2.402;2022-07-29T04:47:42;6.70;;;2.70;;
65853;SDS011;52627;48.838;2.402;2022-07-29T04:50:09;7.50;;;2.80;;
65853;SDS011;52627;48.838;2.402;2022-07-29T04:52:36;7.60;;;2.70;;
65853;SDS011;52627;48.838;2.402;2022-07-29T04:55:04;5.80;;;2.50;;
65853;SDS011;52627;48.838;2.402;2022-07-29T04:57:32;6.70;;;2.70;;
65853;SDS011;52627;48.838;2.402;2022-07-29T04:59:59;7.90;;;2.80;;
65853;SDS011;52627;48.838;2.402;2022-07-29T05:02:26;7.50;;;3.50;;
65853;SDS011;52627;48.838;2.402;2022-07-29T05:04:52;8.60;;;2.80;;
65853;SDS011;52627;48.838;2.402;2022-07-29T05:07:19;9.60;;;3.00;;
65853;SDS011;52627;48.838;2.402;2022-07-29T05:09:47;6.70;;;2.80;;
65853;SDS011;52627;48.838;2.402;2022-07-29T05:12:14;7.20;;;2.90;;
65853;SDS011;52627;48.838;2.402;2022-07-29T05:14:41;5.50;;;2.60;;
65853;SDS011;52627;48.838;2.402;2022-07-29T05:17:07;6.00;;;2.70;;
65853;SDS011;52627;48.838;2.402;2022-07-29T05:19:34;4.90;;;3.00;;
65853;SDS011;52627;48.838;2.402;2022-07-29T05:22:05;6.10;;;3.20;;
65853;SDS011;52627;48.838;2.402;2022-07-29T05:24:33;5.90;;;3.00;;
65853;SDS011;52627;48.838;2.402;2022-07-29T05:26:59;6.00;;;3.00;;
65853;SDS011;52627;48.838;2.402;2022-07-29T05:29:26;6.60;;;3.40;;
65853;SDS011;52627;48.838;2.402;2022-07-29T05:32:12;6.40;;;3.30;;
65853;SDS011;52627;48.838;2.402;2022-07-29T05:34:39;8.40;;;3.00;;
65853;SDS011;52627;48.838;2.402;2022-07-29T05:37:20;8.40;;;3.80;;
65853;SDS011;52627;48.838;2.402;2022-07-29T05:39:47;8.00;;;3.50;;
65853;SDS011;52627;48.838;2.402;2022-07-29T05:42:24;8.80;;;3.10;;
65853;SDS011;52627;48.838;2.402;2022-07-29T05:44:52;6.00;;;3.20;;
65853;SDS011;52627;48.838;2.402;2022-07-29T05:47:19;8.70;;;3.10;;
65853;SDS011;52627;48.838;2.402;2022-07-29T05:49:46;6.60;;;3.00;;
65853;SDS011;52627;48.838;2.402;2022-07-29T05:52:14;6.20;;;3.10;;
65853;SDS011;52627;48.838;2.402;2022-07-29T05:54:41;10.50;;;2.90;;
65853;SDS011;52627;48.838;2.402;2022-07-29T05:57:08;7.00;;;3.20;;
65853;SDS011;52627;48.838;2.402;2022-07-29T05:59:36;6.00;;;3.10;;
65853;SDS011;52627;48.838;2.402;2022-07-29T06:02:04;7.10;;;3.10;;
65853;SDS011;52627;48.838;2.402;2022-07-29T06:04:32;7.40;;;3.10;;
65853;SDS011;52627;48.838;2.402;2022-07-29T06:07:00;7.40;;;3.10;;
65853;SDS011;52627;48.838;2.402;2022-07-29T06:09:27;5.90;;;2.80;;
65853;SDS011;52627;48.838;2.402;2022-07-29T06:11:55;8.60;;;2.70;;
65853;SDS011;52627;48.838;2.402;2022-07-29T06:14:22;5.30;;;2.60;;
65853;SDS011;52627;48.838;2.402;2022-07-29T06:16:49;6.80;;;2.80;;
65853;SDS011;52627;48.838;2.402;2022-07-29T06:19:16;6.40;;;2.90;;
65853;SDS011;52627;48.838;2.402;2022-07-29T06:21:44;7.50;;;2.90;;
65853;SDS011;52627;48.838;2.402;2022-07-29T06:24:12;7.80;;;2.90;;
65853;SDS011;52627;48.838;2.402;2022-07-29T06:26:41;7.90;;;2.80;;
65853;SDS011;52627;48.838;2.402;2022-07-29T06:29:08;8.90;;;2.80;;
65853;SDS011;52627;48.838;2.402;2022-07-29T06:31:37;9.30;;;3.40;;
65853;SDS011;52627;48.838;2.402;2022-07-29T06:34:04;9.80;;;3.40;;
65853;SDS011;52627;48.838;2.402;2022-07-29T06:36:37;7.00;;;3.30;;
65853;SDS011;52627;48.838;2.402;2022-07-29T06:39:08;7.70;;;3.00;;
65853;SDS011;52627;48.838;2.402;2022-07-29T06:41:35;8.50;;;3.40;;
65853;SDS011;52627;48.838;2.402;2022-07-29T06:44:02;11.80;;;3.40;;
65853;SDS011;52627;48.838;2.402;2022-07-29T06:46:31;8.60;;;3.70;;
65853;SDS011;52627;48.838;2.402;2022-07-29T06:48:58;8.60;;;3.40;;
65853;SDS011;52627;48.838;2.402;2022-07-29T06:51:28;8.20;;;3.70;;
65853;SDS011;52627;48.838;2.402;2022-07-29T06:53:55;9.40;;;3.70;;
65853;SDS011;52627;48.838;2.402;2022-07-29T06:56:32;8.40;;;3.50;;
65853;SDS011;52627;48.838;2.402;2022-07-29T06:59:07;11.90;;;3.80;;
65853;SDS011;52627;48.838;2.402;2022-07-29T07:01:37;9.10;;;3.30;;
65853;SDS011;52627;48.838;2.402;2022-07-29T07:04:06;10.90;;;3.60;;
65853;SDS011;52627;48.838;2.402;2022-07-29T07:06:35;15.10;;;4.00;;
65853;SDS011;52627;48.838;2.402;2022-07-29T07:09:02;10.10;;;4.40;;
65853;SDS011;52627;48.838;2.402;2022-07-29T07:11:30;11.30;;;3.90;;
65853;SDS011;52627;48.838;2.402;2022-07-29T07:13:57;11.70;;;3.80;;
65853;SDS011;52627;48.838;2.402;2022-07-29T07:16:30;12.20;;;4.50;;
65853;SDS011;52627;48.838;2.402;2022-07-29T07:18:58;10.20;;;3.80;;
65853;SDS011;52627;48.838;2.402;2022-07-29T07:21:24;12.50;;;3.50;;
65853;SDS011;52627;48.838;2.402;2022-07-29T07:23:51;14.10;;;3.70;;
65853;SDS011;52627;48.838;2.402;2022-07-29T07:26:18;9.90;;;3.50;;
65853;SDS011;52627;48.838;2.402;2022-07-29T07:28:45;11.90;;;3.70;;
65853;SDS011;52627;48.838;2.402;2022-07-29T07:31:12;13.80;;;3.90;;
65853;SDS011;52627;48.838;2.402;2022-07-29T07:33:39;13.40;;;3.80;;
65853;SDS011;52627;48.838;2.402;2022-07-29T07:36:06;11.80;;;3.90;;
65853;SDS011;52627;48.838;2.402;2022-07-29T07:38:33;11.40;;;3.90;;
65853;SDS011;52627;48.838;2.402;2022-07-29T07:41:00;8.50;;;3.30;;
65853;SDS011;52627;48.838;2.402;2022-07-29T07:43:27;8.90;;;3.50;;
65853;SDS011;52627;48.838;2.402;2022-07-29T07:45:54;11.30;;;3.70;;
65853;SDS011;52627;48.838;2.402;2022-07-29T07:48:21;13.10;;;4.00;;
65853;SDS011;52627;48.838;2.402;2022-07-29T07:50:48;12.40;;;3.80;;
65853;SDS011;52627;48.838;2.402;2022-07-29T07:53:15;11.10;;;3.70;;
65853;SDS011;52627;48.838;2.402;2022-07-29T07:55:43;14.50;;;4.10;;
65853;SDS011;52627;48.838;2.402;2022-07-29T07:58:30;10.50;;;3.90;;
65853;SDS011;52627;48.838;2.402;2022-07-29T08:00:57;13.60;;;4.00;;
65853;SDS011;52627;48.838;2.402;2022-07-29T08:03:24;8.60;;;3.20;;
65853;SDS011;52627;48.838;2.402;2022-07-29T08:05:51;8.10;;;3.10;;
65853;SDS011;52627;48.838;2.402;2022-07-29T08:08:18;10.00;;;3.30;;
65853;SDS011;52627;48.838;2.402;2022-07-29T08:10:45;7.40;;;3.00;;
65853;SDS011;52627;48.838;2.402;2022-07-29T08:13:20;7.00;;;3.20;;
65853;SDS011;52627;48.838;2.402;2022-07-29T08:15:48;11.00;;;3.10;;
65853;SDS011;52627;48.838;2.402;2022-07-29T08:18:24;10.10;;;3.40;;
65853;SDS011;52627;48.838;2.402;2022-07-29T08:20:53;10.00;;;3.50;;
65853;SDS011;52627;48.838;2.402;2022-07-29T08:23:22;12.10;;;3.80;;
65853;SDS011;52627;48.838;2.402;2022-07-29T08:25:51;6.90;;;2.80;;
65853;SDS011;52627;48.838;2.402;2022-07-29T08:28:20;10.00;;;3.00;;
65853;SDS011;52627;48.838;2.402;2022-07-29T08:30:52;10.80;;;3.40;;
65853;SDS011;52627;48.838;2.402;2022-07-29T08:33:19;8.90;;;2.90;;
65853;SDS011;52627;48.838;2.402;2022-07-29T08:35:46;9.40;;;3.20;;
65853;SDS011;52627;48.838;2.402;2022-07-29T08:38:12;8.80;;;3.00;;
65853;SDS011;52627;48.838;2.402;2022-07-29T08:40:40;8.60;;;3.10;;
65853;SDS011;52627;48.838;2.402;2022-07-29T08:43:08;10.00;;;3.30;;
65853;SDS011;52627;48.838;2.402;2022-07-29T08:45:44;12.00;;;2.50;;
65853;SDS011;52627;48.838;2.402;2022-07-29T08:48:19;11.60;;;3.00;;
65853;SDS011;52627;48.838;2.402;2022-07-29T08:50:52;8.30;;;2.60;;
65853;SDS011;52627;48.838;2.402;2022-07-29T08:53:21;6.20;;;2.80;;
65853;SDS011;52627;48.838;2.402;2022-07-29T08:55:49;11.20;;;3.10;;
65853;SDS011;52627;48.838;2.402;2022-07-29T08:58:17;13.50;;;3.50;;
65853;SDS011;52627;48.838;2.402;2022-07-29T09:00:51;11.50;;;2.80;;
65853;SDS011;52627;48.838;2.402;2022-07-29T09:03:29;10.50;;;3.20;;
65853;SDS011;52627;48.838;2.402;2022-07-29T09:05:58;10.20;;;2.90;;
65853;SDS011;52627;48.838;2.402;2022-07-29T09:08:26;13.40;;;3.20;;
65853;SDS011;52627;48.838;2.402;2022-07-29T09:10:54;10.70;;;3.00;;
65853;SDS011;52627;48.838;2.402;2022-07-29T09:13:30;7.20;;;2.90;;
65853;SDS011;52627;48.838;2.402;2022-07-29T09:15:56;9.90;;;3.10;;
65853;SDS011;52627;48.838;2.402;2022-07-29T09:21:06;8.00;;;2.60;;
65853;SDS011;52627;48.838;2.402;2022-07-29T09:24:07;11.70;;;2.50;;
65853;SDS011;52627;48.838;2.402;2022-07-29T09:26:37;9.80;;;2.50;;
65853;SDS011;52627;48.838;2.402;2022-07-29T09:29:17;10.90;;;2.30;;
65853;SDS011;52627;48.838;2.402;2022-07-29T09:31:49;8.40;;;2.10;;
65853;SDS011;52627;48.838;2.402;2022-07-29T09:34:25;10.60;;;2.00;;
65853;SDS011;52627;48.838;2.402;2022-07-29T09:36:54;3.90;;;1.70;;
65853;SDS011;52627;48.838;2.402;2022-07-29T09:39:41;3.80;;;1.40;;
65853;SDS011;52627;48.838;2.402;2022-07-29T09:42:12;5.60;;;1.80;;
65853;SDS011;52627;48.838;2.402;2022-07-29T09:47:09;4.40;;;1.80;;
65853;SDS011;52627;48.838;2.402;2022-07-29T09:49:56;6.40;;;1.70;;
65853;SDS011;52627;48.838;2.402;2022-07-29T09:52:26;5.30;;;1.90;;
65853;SDS011;52627;48.838;2.402;2022-07-29T09:57:31;4.70;;;1.90;;
65853;SDS011;52627;48.838;2.402;2022-07-29T10:00:04;5.70;;;1.80;;
65853;SDS011;52627;48.838;2.402;2022-07-29T10:02:37;6.00;;;1.80;;
65853;SDS011;52627;48.838;2.402;2022-07-29T10:05:16;5.30;;;1.70;;
65853;SDS011;52627;48.838;2.402;2022-07-29T10:08:02;8.40;;;2.00;;
65853;SDS011;52627;48.838;2.402;2022-07-29T10:10:31;6.70;;;1.90;;
65853;SDS011;52627;48.838;2.402;2022-07-29T10:13:01;5.20;;;2.00;;
65853;SDS011;52627;48.838;2.402;2022-07-29T10:15:42;7.80;;;2.60;;
65853;SDS011;52627;48.838;2.402;2022-07-29T10:18:12;7.90;;;2.30;;
65853;SDS011;52627;48.838;2.402;2022-07-29T10:20:40;5.60;;;2.10;;
65853;SDS011;52627;48.838;2.402;2022-07-29T10:23:08;7.10;;;2.30;;
65853;SDS011;52627;48.838;2.402;2022-07-29T10:25:36;6.00;;;2.20;;
65853;SDS011;52627;48.838;2.402;2022-07-29T10:28:05;7.20;;;2.00;;
65853;SDS011;52627;48.838;2.402;2022-07-29T10:30:33;9.10;;;2.60;;
65853;SDS011;52627;48.838;2.402;2022-07-29T10:36:19;8.30;;;2.30;;
65853;SDS011;52627;48.838;2.402;2022-07-29T10:39:17;8.30;;;2.20;;
65853;SDS011;52627;48.838;2.402;2022-07-29T10:42:02;11.10;;;2.50;;
65853;SDS011;52627;48.838;2.402;2022-07-29T10:45:00;7.10;;;2.00;;
65853;SDS011;52627;48.838;2.402;2022-07-29T10:47:30;5.50;;;2.20;;
65853;SDS011;52627;48.838;2.402;2022-07-29T10:50:02;5.60;;;2.30;;
65853;SDS011;52627;48.838;2.402;2022-07-29T10:55:33;6.80;;;2.20;;
65853;SDS011;52627;48.838;2.402;2022-07-29T10:58:14;5.90;;;2.00;;
65853;SDS011;52627;48.838;2.402;2022-07-29T11:00:53;6.10;;;2.00;;
65853;SDS011;52627;48.838;2.402;2022-07-29T11:03:48;5.90;;;1.80;;
65853;SDS011;52627;48.838;2.402;2022-07-29T11:06:23;5.30;;;2.00;;
65853;SDS011;52627;48.838;2.402;2022-07-29T11:09:15;5.80;;;1.80;;
65853;SDS011;52627;48.838;2.402;2022-07-29T11:11:52;3.90;;;1.60;;
65853;SDS011;52627;48.838;2.402;2022-07-29T11:17:18;6.10;;;1.90;;
65853;SDS011;52627;48.838;2.402;2022-07-29T11:19:47;6.90;;;1.90;;
65853;SDS011;52627;48.838;2.402;2022-07-29T11:22:32;4.70;;;1.90;;
65853;SDS011;52627;48.838;2.402;2022-07-29T11:25:14;7.70;;;2.30;;
65853;SDS011;52627;48.838;2.402;2022-07-29T11:27:44;6.20;;;1.90;;
65853;SDS011;52627;48.838;2.402;2022-07-29T11:30:12;5.30;;;1.70;;
65853;SDS011;52627;48.838;2.402;2022-07-29T11:32:42;6.00;;;2.20;;
65853;SDS011;52627;48.838;2.402;2022-07-29T11:35:19;5.10;;;1.70;;
65853;SDS011;52627;48.838;2.402;2022-07-29T11:38:24;8.20;;;1.90;;
65853;SDS011;52627;48.838;2.402;2022-07-29T11:41:23;6.00;;;1.80;;
65853;SDS011;52627;48.838;2.402;2022-07-29T11:43:59;5.40;;;1.80;;
65853;SDS011;52627;48.838;2.402;2022-07-29T11:46:49;4.70;;;1.90;;
65853;SDS011;52627;48.838;2.402;2022-07-29T11:49:25;5.80;;;1.80;;
65853;SDS011;52627;48.838;2.402;2022-07-29T11:52:13;6.50;;;1.80;;
65853;SDS011;52627;48.838;2.402;2022-07-29T11:54:42;5.20;;;1.80;;
65853;SDS011;52627;48.838;2.402;2022-07-29T11:57:24;4.50;;;1.80;;
65853;SDS011;52627;48.838;2.402;2022-07-29T12:00:06;4.60;;;1.70;;
65853;SDS011;52627;48.838;2.402;2022-07-29T12:02:56;4.10;;;1.90;;
65853;SDS011;52627;48.838;2.402;2022-07-29T12:08:20;4.80;;;1.90;;
65853;SDS011;52627;48.838;2.402;2022-07-29T12:10:50;4.80;;;1.80;;
65853;SDS011;52627;48.838;2.402;2022-07-29T12:13:19;5.10;;;1.60;;
65853;SDS011;52627;48.838;2.402;2022-07-29T12:18:20;4.90;;;1.80;;
65853;SDS011;52627;48.838;2.402;2022-07-29T12:21:00;5.20;;;1.90;;
65853;SDS011;52627;48.838;2.402;2022-07-29T12:23:32;4.30;;;1.60;;
65853;SDS011;52627;48.838;2.402;2022-07-29T12:26:05;7.80;;;2.20;;
65853;SDS011;52627;48.838;2.402;2022-07-29T12:28:38;4.70;;;1.80;;
65853;SDS011;52627;48.838;2.402;2022-07-29T12:31:05;9.20;;;1.90;;
65853;SDS011;52627;48.838;2.402;2022-07-29T12:33:34;6.90;;;1.80;;
65853;SDS011;52627;48.838;2.402;2022-07-29T12:36:02;5.70;;;1.90;;
65853;SDS011;52627;48.838;2.402;2022-07-29T12:38:35;6.10;;;1.60;;
65853;SDS011;52627;48.838;2.402;2022-07-29T12:41:02;4.00;;;1.60;;
65853;SDS011;52627;48.838;2.402;2022-07-29T12:43:31;4.90;;;1.50;;
65853;SDS011;52627;48.838;2.402;2022-07-29T12:46:12;3.60;;;1.50;;
65853;SDS011;52627;48.838;2.402;2022-07-29T12:48:42;4.30;;;1.70;;
65853;SDS011;52627;48.838;2.402;2022-07-29T12:51:10;3.00;;;1.50;;
65853;SDS011;52627;48.838;2.402;2022-07-29T12:53:39;4.10;;;1.50;;
65853;SDS011;52627;48.838;2.402;2022-07-29T12:56:06;5.30;;;1.50;;
65853;SDS011;52627;48.838;2.402;2022-07-29T12:59:14;3.60;;;1.50;;
65853;SDS011;52627;48.838;2.402;2022-07-29T13:01:44;3.60;;;1.70;;
65853;SDS011;52627;48.838;2.402;2022-07-29T13:04:29;3.30;;;1.60;;
65853;SDS011;52627;48.838;2.402;2022-07-29T13:07:06;4.20;;;1.60;;
65853;SDS011;52627;48.838;2.402;2022-07-29T13:09:42;5.40;;;1.80;;
65853;SDS011;52627;48.838;2.402;2022-07-29T13:12:13;4.00;;;1.50;;
65853;SDS011;52627;48.838;2.402;2022-07-29T13:14:42;5.00;;;1.60;;
65853;SDS011;52627;48.838;2.402;2022-07-29T13:17:17;6.00;;;1.60;;
65853;SDS011;52627;48.838;2.402;2022-07-29T13:19:51;4.40;;;1.60;;
65853;SDS011;52627;48.838;2.402;2022-07-29T13:22:23;4.90;;;1.70;;
65853;SDS011;52627;48.838;2.402;2022-07-29T13:27:26;6.80;;;2.10;;
65853;SDS011;52627;48.838;2.402;2022-07-29T13:29:55;6.20;;;1.70;;
65853;SDS011;52627;48.838;2.402;2022-07-29T13:32:27;5.40;;;1.70;;
65853;SDS011;52627;48.838;2.402;2022-07-29T13:34:57;4.00;;;1.70;;
65853;SDS011;52627;48.838;2.402;2022-07-29T13:39:52;4.20;;;1.70;;
65853;SDS011;52627;48.838;2.402;2022-07-29T13:42:22;5.10;;;1.70;;
65853;SDS011;52627;48.838;2.402;2022-07-29T13:44:49;4.00;;;1.50;;
65853;SDS011;52627;48.838;2.402;2022-07-29T13:47:18;5.30;;;1.80;;
65853;SDS011;52627;48.838;2.402;2022-07-29T13:49:46;3.90;;;1.70;;
65853;SDS011;52627;48.838;2.402;2022-07-29T13:52:14;4.50;;;1.80;;
65853;SDS011;52627;48.838;2.402;2022-07-29T13:54:42;5.60;;;1.50;;
65853;SDS011;52627;48.838;2.402;2022-07-29T13:57:10;5.10;;;1.60;;
65853;SDS011;52627;48.838;2.402;2022-07-29T13:59:41;4.40;;;1.60;;
65853;SDS011;52627;48.838;2.402;2022-07-29T14:02:09;3.50;;;1.60;;
65853;SDS011;52627;48.838;2.402;2022-07-29T14:04:37;4.50;;;1.80;;
65853;SDS011;52627;48.838;2.402;2022-07-29T14:07:06;5.10;;;1.70;;
65853;SDS011;52627;48.838;2.402;2022-07-29T14:09:33;3.30;;;1.70;;
65853;SDS011;52627;48.838;2.402;2022-07-29T14:12:08;4.70;;;1.60;;
65853;SDS011;52627;48.838;2.402;2022-07-29T14:14:35;4.10;;;1.50;;
65853;SDS011;52627;48.838;2.402;2022-07-29T14:17:03;4.00;;;1.50;;
65853;SDS011;52627;48.838;2.402;2022-07-29T14:19:32;4.10;;;1.60;;
65853;SDS011;52627;48.838;2.402;2022-07-29T14:22:03;5.30;;;1.70;;
65853;SDS011;52627;48.838;2.402;2022-07-29T14:24:31;5.00;;;1.70;;
65853;SDS011;52627;48.838;2.402;2022-07-29T14:26:58;4.90;;;1.60;;
65853;SDS011;52627;48.838;2.402;2022-07-29T14:29:26;4.70;;;1.60;;
65853;SDS011;52627;48.838;2.402;2022-07-29T14:32:05;3.00;;;1.50;;
65853;SDS011;52627;48.838;2.402;2022-07-29T14:34:34;3.30;;;1.70;;
65853;SDS011;52627;48.838;2.402;2022-07-29T14:37:03;5.00;;;1.60;;
65853;SDS011;52627;48.838;2.402;2022-07-29T14:39:31;2.70;;;1.50;;
65853;SDS011;52627;48.838;2.402;2022-07-29T14:41:59;2.60;;;1.40;;
65853;SDS011;52627;48.838;2.402;2022-07-29T14:44:26;4.80;;;1.90;;
65853;SDS011;52627;48.838;2.402;2022-07-29T14:47:00;5.10;;;1.70;;
65853;SDS011;52627;48.838;2.402;2022-07-29T14:49:34;4.30;;;1.50;;
65853;SDS011;52627;48.838;2.402;2022-07-29T14:52:02;4.80;;;1.70;;
65853;SDS011;52627;48.838;2.402;2022-07-29T14:54:29;3.50;;;1.40;;
65853;SDS011;52627;48.838;2.402;2022-07-29T14:56:56;5.80;;;1.60;;
65853;SDS011;52627;48.838;2.402;2022-07-29T14:59:23;5.50;;;1.80;;
65853;SDS011;52627;48.838;2.402;2022-07-29T15:01:50;4.50;;;1.70;;
65853;SDS011;52627;48.838;2.402;2022-07-29T15:04:17;3.80;;;1.60;;
65853;SDS011;52627;48.838;2.402;2022-07-29T15:06:44;4.50;;;1.80;;
65853;SDS011;52627;48.838;2.402;2022-07-29T15:09:11;4.10;;;1.60;;
65853;SDS011;52627;48.838;2.402;2022-07-29T15:11:38;3.70;;;1.30;;
65853;SDS011;52627;48.838;2.402;2022-07-29T15:14:05;4.20;;;1.60;;
65853;SDS011;52627;48.838;2.402;2022-07-29T15:16:35;3.40;;;1.50;;
65853;SDS011;52627;48.838;2.402;2022-07-29T15:19:04;3.70;;;1.60;;
65853;SDS011;52627;48.838;2.402;2022-07-29T15:21:31;6.10;;;2.00;;
65853;SDS011;52627;48.838;2.402;2022-07-29T15:23:58;3.70;;;1.20;;
65853;SDS011;52627;48.838;2.402;2022-07-29T15:26:25;4.60;;;1.60;;
65853;SDS011;52627;48.838;2.402;2022-07-29T15:28:52;5.50;;;1.60;;
65853;SDS011;52627;48.838;2.402;2022-07-29T15:31:19;4.50;;;1.70;;
65853;SDS011;52627;48.838;2.402;2022-07-29T15:33:46;3.60;;;1.70;;
65853;SDS011;52627;48.838;2.402;2022-07-29T15:36:13;3.70;;;1.90;;
65853;SDS011;52627;48.838;2.402;2022-07-29T15:39:00;4.20;;;1.30;;
65853;SDS011;52627;48.838;2.402;2022-07-29T15:41:27;5.40;;;1.80;;
65853;SDS011;52627;48.838;2.402;2022-07-29T15:43:54;5.30;;;1.50;;
65853;SDS011;52627;48.838;2.402;2022-07-29T15:46:21;3.40;;;1.50;;
65853;SDS011;52627;48.838;2.402;2022-07-29T15:49:06;3.30;;;1.60;;
65853;SDS011;52627;48.838;2.402;2022-07-29T15:51:34;4.10;;;1.70;;
65853;SDS011;52627;48.838;2.402;2022-07-29T15:54:02;4.50;;;1.40;;
65853;SDS011;52627;48.838;2.402;2022-07-29T15:56:30;3.70;;;1.60;;
65853;SDS011;52627;48.838;2.402;2022-07-29T15:58:57;5.70;;;2.10;;